22:34
Airports
History
Links
Donate
Help keep this website running!
PayPal
Bitcoin
This page is community maintained. The information is intended for PC simulator navigation or reference.
Always use approved charts for navigation.
EGLF
Farnborough
Farnborough (EGLF)
Farnborough, England, United Kingdom
(C)
Lat/Lng:51° 16' 32.53" N / 0° 46' 35.72" W
51.275704 / -0.776589
Elevation:238'ft / 73mMSL
ID / ICAO:EGLF
Runways:1
Longest:06-24
Asphalt 2,430m / 7,973ft
Controlled:Yes
METAR19:50 GMT 2017-09-19
Altimeter: 30.18
Visibility: 6.2 statute miles
Wind: 2 knots (from 220°)
Temp: 9°c / 48°f
Humidity: 93.4%

METAR: EGLF 191950Z 22002KT CAVOK 09/08 Q1022

(Powered by phpweather)
Airport Radio Frequencies
Farnborough Information: 128.4
Tower: 122.5
Approach: 125.25, 130.05, 134.35
Nearby VORs <50NM
Nearby NDBs
Runway 06 / 24
Dimensions:2430.1 x 46m 7973' x 151'ft
Surface:Asphalt
Edge Lights:High intensity
Runway 06 [A]Runway 24 [B]
Heading:061°TH 241°TH
Lat:
Lng:
51° 16' 14.01"N
0° 47' 31.32"W
51° 16' 51.05"N
0° 45' 40.12"W
ALS:CalvertCalvert
TDZ:Yes, lighted
User Notes and Comments
51° 16' 32.53" N / 0° 46' 35.72" W
Distance To
Airport ID:
Nearby Airports
(C) Blackbushe 4.5 NM
EGLK NW 317°
4 Hook 7.0 NM
EG53 W 270°
(C) RAF Odiham 7.7 NM
EGVO WSW 248°
(C) Fairoaks 10.7 NM
EGTF ENE 62°
4 Ascot Heliport [H] 11.2 NM
EGLT NNE 26°
(C) Lasham 12.6 NM
EGHL WSW 241°
(U) Brooklands 14.2 NM
EGLB ENE 68°
VFR Chart
Flight Planning at SkyVector.com